.
WxDataArchive / Data Records for 2009-07-28
2009-07-27 July 2009 2009-07-29

Data Records for Tuesday, 28 July 2009

Time	Temp	Chill	HIndex	Humid	Dewpt	 Wind 	HiWind	WindDir	Rain 	Barom 
-----	----	-----	------	-----	-----	------	------	-------	-----	----- 
00:00	69.8	69.8	69.8	79	63.0	0	0	---	0.00	29.884 
00:05	69.6	69.6	69.6	79	62.8	0	0	---	0.00	29.884 
00:10	69.6	69.6	69.6	79	62.8	0	1	225	0.00	29.884 
00:15	69.6	69.6	69.6	79	62.8	0	1	225	0.00	29.893 
00:20	69.6	69.6	69.6	79	62.8	0	0	---	0.00	29.893 
00:25	69.6	69.6	69.6	79	62.8	0	0	---	0.00	29.893 
00:30	69.4	69.4	69.4	80	63.0	0	0	---	0.00	29.888 
00:35	69.3	69.3	69.3	80	62.9	0	0	---	0.00	29.888 
00:40	69.3	69.3	69.3	80	62.9	0	0	---	0.00	29.888 
00:45	69.3	69.3	69.3	80	62.9	0	1	225	0.00	29.898 
00:50	69.3	69.3	69.3	80	62.9	0	1	225	0.00	29.898 
00:55	69.3	69.3	69.3	80	62.9	0	1	225	0.00	29.898 
01:00	69.4	69.4	69.4	80	63.0	0	0	---	0.00	29.898 
01:05	69.3	69.3	69.3	80	62.9	0	0	---	0.00	29.898 
01:10	69.3	69.3	69.3	80	62.9	0	1	225	0.00	29.898 
01:15	69.3	69.3	69.3	80	62.9	0	0	---	0.00	29.897 
01:20	69.1	69.1	69.1	80	62.7	0	0	---	0.00	29.897 
01:25	69.1	69.1	69.1	80	62.7	0	0	---	0.00	29.897 
01:30	69.1	69.1	69.1	81	63.0	0	0	---	0.00	29.895 
01:35	68.9	68.9	68.9	81	62.8	0	0	---	0.00	29.895 
01:40	68.9	68.9	68.9	81	62.8	0	1	225	0.00	29.895 
01:45	68.9	68.9	68.9	81	62.8	0	0	---	0.00	29.892 
01:50	68.8	68.8	68.8	81	62.7	0	0	---	0.00	29.892 
01:55	68.8	68.8	68.8	81	62.7	0	0	---	0.00	29.892 
02:00	68.6	68.6	68.6	82	62.9	0	0	---	0.00	29.887 
02:05	68.6	68.6	68.6	82	62.9	0	1	225	0.00	29.887 
02:10	68.6	68.6	68.6	82	62.9	0	1	225	0.00	29.887 
02:15	68.4	68.4	68.4	82	62.7	0	1	225	0.00	29.885 
02:20	68.4	68.4	68.4	83	63.0	0	1	225	0.00	29.885 
02:25	68.3	68.3	68.3	83	62.9	0	1	225	0.00	29.885 
02:30	68.1	68.1	68.1	83	62.7	0	1	225	0.00	29.883 
02:35	68.1	68.1	68.1	83	62.7	0	1	225	0.00	29.883 
02:40	67.9	67.9	67.9	84	62.9	0	1	225	0.00	29.883 
02:45	67.9	67.9	67.9	84	62.9	0	1	225	0.00	29.879 
02:50	67.9	67.9	67.9	84	62.9	0	3	225	0.00	29.879 
02:55	67.8	67.8	67.8	84	62.8	0	2	225	0.00	29.879 
03:00	67.8	67.8	67.8	84	62.8	0	1	225	0.00	29.876 
03:05	67.6	67.6	67.6	84	62.6	0	1	225	0.00	29.876 
03:10	67.4	67.4	67.4	84	62.4	0	1	225	0.00	29.876 
03:15	67.4	67.4	67.4	84	62.4	0	2	225	0.00	29.881 
03:20	67.4	67.4	67.4	85	62.7	0	1	225	0.00	29.881 
03:25	67.4	67.4	67.4	85	62.7	0	0	---	0.00	29.881 
03:30	67.4	67.4	67.4	85	62.7	0	1	225	0.00	29.876 
03:35	67.3	67.3	67.3	85	62.6	0	1	225	0.00	29.876 
03:40	67.3	67.3	67.3	85	62.6	0	1	225	0.00	29.876 
03:45	67.1	67.1	67.1	85	62.4	0	3	248	0.00	29.871 
03:50	67.3	67.3	67.3	85	62.6	0	1	248	0.00	29.871 
03:55	67.3	67.3	67.3	85	62.6	0	1	248	0.00	29.871 
04:00	67.3	67.3	67.3	85	62.6	0	1	248	0.00	29.867 
04:05	67.3	67.3	67.3	85	62.6	0	1	248	0.00	29.867 
04:10	67.3	67.3	67.3	85	62.6	0	2	248	0.00	29.867 
04:15	67.3	67.3	67.3	85	62.6	0	2	248	0.00	29.865 
04:20	67.3	67.3	67.3	85	62.6	0	2	248	0.00	29.865 
04:25	67.3	67.3	67.3	85	62.6	0	2	248	0.00	29.865 
04:30	67.4	67.4	67.4	85	62.7	0	1	270	0.00	29.861 
04:35	67.4	67.4	67.4	85	62.7	0	2	270	0.00	29.861 
04:40	67.4	67.4	67.4	85	62.7	0	1	270	0.00	29.861 
04:45	67.6	67.6	67.6	85	62.9	0	2	270	0.00	29.857 
04:50	67.4	67.4	67.4	84	62.4	0	1	270	0.00	29.857 
04:55	67.6	67.6	67.6	84	62.6	0	2	248	0.00	29.857 
05:00	67.6	67.6	67.6	84	62.6	0	2	270	0.00	29.853 
05:05	67.6	67.6	67.6	84	62.6	0	1	270	0.00	29.853 
05:10	67.6	67.6	67.6	84	62.6	0	3	248	0.00	29.853 
05:15	67.6	67.6	67.6	84	62.6	0	2	248	0.00	29.849 
05:20	67.6	67.6	67.6	84	62.6	0	1	248	0.00	29.849 
05:25	67.6	67.6	67.6	84	62.6	0	1	248	0.00	29.849 
05:30	67.6	67.6	67.6	85	62.9	0	1	248	0.00	29.848 
05:35	67.8	67.8	67.8	84	62.8	0	2	248	0.00	29.848 
05:40	67.8	67.8	67.8	84	62.8	0	1	248	0.00	29.848 
05:45	67.9	67.9	67.9	84	62.9	0	1	248	0.00	29.852 
05:50	67.9	67.9	67.9	84	62.9	0	2	248	0.00	29.852 
05:55	67.9	67.9	67.9	84	62.9	0	2	248	0.00	29.852 
06:00	68.1	68.1	68.1	84	63.1	0	1	248	0.00	29.849 
06:05	68.1	68.1	68.1	84	63.1	0	2	248	0.00	29.849 
06:10	68.1	68.1	68.1	84	63.1	0	1	248	0.00	29.849 
06:15	68.3	68.3	68.3	84	63.3	0	2	248	0.00	29.848 
06:20	68.3	68.3	68.3	84	63.3	0	2	248	0.00	29.848 
06:25	68.3	68.3	68.3	83	62.9	0	1	248	0.00	29.848 
06:30	68.3	68.3	68.3	83	62.9	0	2	248	0.00	29.846 
06:35	68.4	68.4	68.4	83	63.0	0	3	270	0.00	29.846 
06:40	68.4	68.4	68.4	83	63.0	0	4	248	0.00	29.846 
06:45	68.6	68.6	68.6	82	62.9	1	3	248	0.00	29.841 
06:50	68.8	68.8	68.8	82	63.1	0	2	22	0.00	29.841 
06:55	68.9	68.9	68.9	82	63.2	0	3	225	0.00	29.841 
07:00	69.1	69.1	69.1	81	63.0	1	4	225	0.00	29.847 
07:05	69.3	69.3	69.3	81	63.2	0	1	270	0.00	29.847 
07:10	69.3	69.3	69.3	81	63.2	1	9	248	0.00	29.847 
07:15	69.4	69.4	69.4	80	63.0	1	4	292	0.00	29.850 
07:20	69.4	69.4	69.4	80	63.0	0	2	292	0.00	29.850 
07:25	69.6	69.6	69.6	80	63.1	0	2	292	0.00	29.850 
07:30	69.6	69.6	69.6	80	63.1	0	2	292	0.00	29.855 
07:35	69.8	69.8	69.8	79	63.0	1	3	248	0.00	29.855 
07:40	69.8	69.8	69.8	79	63.0	1	4	292	0.00	29.855 
07:45	69.9	69.9	69.9	79	63.1	1	4	225	0.00	29.858 
07:50	69.9	69.9	69.9	78	62.7	1	4	225	0.00	29.858 
07:55	70.1	70.1	70.1	78	62.9	1	4	248	0.00	29.858 
08:00	70.4	70.4	70.4	78	63.2	1	4	292	0.00	29.857 
08:05	70.6	70.6	70.6	77	63.0	1	4	248	0.00	29.857 
08:10	70.8	70.8	70.8	77	63.2	0	2	315	0.00	29.857 
08:15	70.8	70.8	70.8	77	63.2	1	3	225	0.00	29.858 
08:20	70.8	70.8	70.8	77	63.2	1	4	248	0.00	29.858 
08:25	70.9	70.9	70.9	77	63.3	1	3	248	0.00	29.858 
08:30	71.1	71.1	71.1	77	63.5	1	5	270	0.00	29.855 
08:35	71.3	71.3	71.3	76	63.3	1	3	270	0.00	29.855 
08:40	71.5	71.5	71.5	76	63.5	0	3	270	0.00	29.855 
08:45	71.6	71.6	71.6	76	63.6	1	4	270	0.00	29.855 
08:50	71.8	71.8	71.8	75	63.4	1	3	270	0.00	29.855 
08:55	72.0	72.0	72.0	75	63.6	1	4	248	0.00	29.855 
09:00	72.1	72.1	72.1	74	63.3	1	3	338	0.00	29.856 
09:05	72.3	72.3	72.3	74	63.5	1	4	270	0.00	29.856 
09:10	72.5	72.5	72.5	74	63.7	1	3	248	0.00	29.856 
09:15	72.7	72.7	72.7	73	63.5	1	3	248	0.00	29.860 
09:20	73.0	73.0	73.0	73	63.8	1	3	248	0.00	29.860 
09:25	73.3	73.3	73.3	72	63.7	1	4	248	0.00	29.860 
09:30	73.9	73.9	73.9	72	64.3	1	3	248	0.00	29.856 
09:35	74.4	74.4	74.4	70	64.0	1	5	248	0.00	29.856 
09:40	74.7	74.7	74.7	71	64.7	1	3	338	0.00	29.856 
09:45	74.9	74.9	74.9	69	64.0	1	5	270	0.00	29.853 
09:50	74.9	74.9	74.9	69	64.0	1	4	292	0.00	29.853 
09:55	75.1	75.1	76.9	69	64.2	1	5	292	0.00	29.853 
10:00	75.1	75.1	76.9	69	64.2	1	6	248	0.00	29.853 
10:05	75.1	75.1	76.9	69	64.2	1	4	270	0.00	29.853 
10:10	75.3	75.3	77.1	68	64.0	1	4	270	0.00	29.853 
10:15	75.4	75.4	77.3	67	63.7	2	6	270	0.00	29.854 
10:20	75.4	75.4	77.2	68	64.1	1	3	270	0.00	29.854 
10:25	75.3	75.3	77.1	68	64.0	1	6	270	0.00	29.854 
10:30	75.3	75.3	77.0	69	64.4	1	4	270	0.00	29.855 
10:35	75.3	75.3	77.1	68	64.0	1	5	248	0.00	29.855 
10:40	75.4	75.4	77.3	67	63.7	2	6	248	0.00	29.855 
10:45	75.6	75.6	77.4	67	63.9	1	4	248	0.00	29.853 
10:50	75.8	75.8	77.6	68	64.5	1	3	248	0.00	29.853 
10:55	76.0	76.0	77.8	67	64.2	1	4	248	0.00	29.853 
11:00	76.1	76.1	77.9	66	63.9	2	4	270	0.00	29.857 
11:05	76.1	76.1	77.9	66	63.9	2	4	270	0.00	29.857 
11:10	75.8	75.8	77.6	67	64.0	1	3	270	0.00	29.857 
11:15	75.6	75.6	77.3	69	64.7	1	2	270	0.00	29.855 
11:20	75.1	75.1	76.6	72	65.4	1	2	270	0.00	29.855 
11:25	74.9	74.9	74.9	74	66.0	0	1	270	0.00	29.855 
11:30	75.3	75.3	76.7	73	66.0	1	3	270	0.00	29.847 
11:35	75.6	75.6	77.2	70	65.1	1	3	248	0.00	29.847 
11:40	76.1	76.1	77.8	69	65.2	1	3	248	0.00	29.847 
11:45	76.5	76.5	78.3	68	65.1	1	4	270	0.00	29.839 
11:50	76.8	76.8	78.6	66	64.6	1	4	248	0.00	29.839 
11:55	77.2	77.2	79.0	66	64.9	1	3	248	0.00	29.839 
12:00	77.4	77.4	79.2	65	64.7	1	6	270	0.00	29.834 
12:05	77.6	77.6	79.4	64	64.4	2	4	270	0.00	29.834 
12:10	78.5	78.5	80.4	64	65.3	2	6	270	0.00	29.834 
12:15	79.0	79.0	80.8	62	64.8	2	6	270	0.00	29.835 
12:20	79.0	79.0	80.8	61	64.4	2	5	270	0.00	29.835 
12:25	79.0	79.0	80.8	62	64.8	1	3	248	0.00	29.835 
12:30	79.2	79.2	81.0	61	64.6	1	3	248	0.00	29.827 
12:35	79.4	79.4	81.2	61	64.8	1	3	248	0.00	29.827 
12:40	79.4	79.4	81.2	61	64.8	2	5	292	0.00	29.827 
12:45	79.6	79.6	81.5	62	65.4	1	4	248	0.00	29.825 
12:50	79.9	79.9	81.8	61	65.2	1	3	248	0.00	29.825 
12:55	80.1	80.1	82.0	61	65.4	1	3	248	0.00	29.825 
13:00	80.3	80.3	82.3	61	65.6	1	4	270	0.00	29.828 
13:05	80.3	80.3	82.2	60	65.1	1	4	270	0.00	29.828 
13:10	79.9	79.9	81.7	60	64.7	2	4	248	0.00	29.828 
13:15	79.8	79.8	81.6	60	64.7	2	4	248	0.00	29.833 
13:20	79.8	79.8	81.6	60	64.7	1	3	248	0.00	29.833 
13:25	79.9	79.9	81.8	61	65.2	2	5	270	0.00	29.833 
13:30	79.9	79.9	81.9	62	65.7	1	3	270	0.00	29.824 
13:35	80.1	80.1	82.2	62	65.9	1	3	270	0.00	29.824 
13:40	79.9	79.9	81.7	60	64.7	2	5	292	0.00	29.824 
13:45	79.8	79.8	81.5	59	64.2	2	5	270	0.00	29.823 
13:50	79.4	79.4	81.1	60	64.3	1	3	248	0.00	29.823 
13:55	79.4	79.4	81.2	61	64.8	1	3	270	0.00	29.823 
14:00	79.4	79.4	81.2	61	64.8	1	3	248	0.00	29.821 
14:05	79.6	79.6	81.4	61	64.9	0	2	248	0.00	29.821 
14:10	79.9	79.9	81.8	61	65.2	1	3	338	0.00	29.821 
14:15	80.5	80.5	82.7	62	66.3	1	4	270	0.00	29.822 
14:20	80.9	80.9	82.9	60	65.7	2	5	270	0.00	29.822 
14:25	81.1	81.1	83.3	61	66.4	2	4	270	0.00	29.822 
14:30	81.6	81.6	84.2	62	67.3	2	6	270	0.00	29.822 
14:35	82.4	82.4	85.0	60	67.1	1	4	270	0.00	29.822 
14:40	82.8	82.8	85.0	57	66.0	1	3	270	0.00	29.822 
14:45	82.6	82.6	84.9	58	66.3	1	4	270	0.00	29.820 
14:50	82.4	82.4	84.6	58	66.1	1	4	292	0.00	29.820 
14:55	82.4	82.4	84.6	58	66.1	1	4	292	0.00	29.820 
15:00	82.6	82.6	84.7	57	65.8	1	4	292	0.00	29.818 
15:05	82.2	82.2	84.0	56	64.9	1	3	248	0.00	29.818 
15:10	82.0	82.0	83.9	57	65.2	1	3	315	0.00	29.818 
15:15	82.2	82.2	84.3	58	65.9	1	3	270	0.00	29.808 
15:20	82.6	82.6	84.9	58	66.3	1	3	270	0.00	29.808 
15:25	82.8	82.8	85.4	59	67.0	1	3	270	0.00	29.808 
15:30	83.4	83.4	85.8	57	66.5	1	3	270	0.00	29.814 
15:35	83.8	83.8	86.7	58	67.4	1	3	315	0.00	29.814 
15:40	83.4	83.4	86.1	58	67.0	1	3	270	0.00	29.814 
15:45	83.0	83.0	85.5	58	66.7	1	2	270	0.00	29.804 
15:50	82.8	82.8	85.4	59	67.0	1	2	270	0.00	29.804 
15:55	83.2	83.2	85.8	58	66.9	0	2	248	0.00	29.804 
16:00	83.0	83.0	85.5	58	66.7	2	4	248	0.00	29.800 
16:05	82.6	82.6	84.9	58	66.3	2	3	270	0.00	29.800 
16:10	83.0	83.0	86.1	61	68.1	1	3	270	0.00	29.800 
16:15	84.1	84.1	87.4	59	68.2	1	2	270	0.00	29.786 
16:20	84.7	84.7	87.6	56	67.2	1	3	270	0.00	29.786 
16:25	84.9	84.9	87.3	54	66.4	2	5	248	0.00	29.786 
16:30	85.1	85.1	88.5	57	68.1	1	2	270	0.00	29.782 
16:35	85.5	85.5	88.9	56	68.0	1	3	270	0.00	29.782 
16:40	85.7	85.7	88.6	54	67.1	1	4	270	0.00	29.782 
16:45	85.3	85.3	88.2	55	67.3	1	4	248	0.00	29.781 
16:50	85.1	85.1	87.7	54	66.6	1	3	315	0.00	29.781 
16:55	84.5	84.5	87.0	55	66.5	2	4	270	0.00	29.781 
17:00	84.1	84.1	86.7	56	66.7	1	4	248	0.00	29.782 
17:05	83.8	83.8	86.4	57	66.9	1	3	248	0.00	29.782 
17:10	83.8	83.8	86.0	55	65.9	1	3	248	0.00	29.782 
17:15	83.8	83.8	86.2	56	66.4	1	2	248	0.00	29.771 
17:20	83.8	83.8	86.4	57	66.9	0	1	248	0.00	29.771 
17:25	84.0	84.0	86.7	57	67.1	0	3	248	0.00	29.771 
17:30	84.1	84.1	86.2	54	65.6	2	4	270	0.00	29.770 
17:35	84.0	84.0	86.5	56	66.6	1	3	270	0.00	29.770 
17:40	83.4	83.4	85.6	56	66.0	0	2	270	0.00	29.770 
17:45	82.4	82.4	83.9	54	64.1	1	7	270	0.00	29.773 
17:50	80.5	80.5	82.1	57	63.8	2	7	270	0.00	29.773 
17:55	79.2	79.2	80.8	59	63.6	1	6	292	0.00	29.773 
18:00	78.3	78.3	80.0	61	63.7	1	3	270	0.00	29.780 
18:05	78.1	78.1	79.9	62	64.0	1	3	248	0.00	29.780 
18:10	77.6	77.6	79.4	65	64.9	1	5	248	0.00	29.780 
18:15	77.2	77.2	79.0	67	65.4	1	4	248	0.00	29.776 
18:20	76.7	76.7	78.4	69	65.7	1	3	270	0.00	29.776 
18:25	75.8	75.8	77.4	71	65.7	1	4	270	0.00	29.776 
18:30	75.1	75.1	76.5	73	65.8	0	1	270	0.00	29.790 
18:35	74.4	74.4	74.4	76	66.3	0	1	270	0.00	29.790 
18:40	74.0	74.0	74.0	77	66.3	0	1	270	0.00	29.790 
18:45	73.5	73.5	73.5	79	66.6	0	1	270	0.00	29.796 
18:50	73.3	73.3	73.3	80	66.7	0	2	270	0.00	29.796 
18:55	73.2	73.2	73.2	80	66.6	1	2	270	0.00	29.796 
19:00	72.8	72.8	72.8	79	65.9	0	3	112	0.00	29.794 
19:05	72.3	72.3	72.3	79	65.4	0	1	112	0.00	29.794 
19:10	72.1	72.1	72.1	80	65.6	0	1	112	0.00	29.794 
19:15	72.0	72.0	72.0	80	65.5	0	0	---	0.00	29.801 
19:20	71.8	71.8	71.8	81	65.6	0	2	112	0.00	29.801 
19:25	71.6	71.6	71.6	81	65.4	0	2	112	0.00	29.801 
19:30	71.6	71.6	71.6	81	65.4	0	1	112	0.00	29.798 
19:35	71.8	71.8	71.8	82	66.0	0	1	112	0.00	29.798 
19:40	71.8	71.8	71.8	82	66.0	0	1	112	0.00	29.798 
19:45	72.0	72.0	72.0	83	66.5	0	1	112	0.00	29.799 
19:50	72.0	72.0	72.0	84	66.9	0	0	---	0.00	29.799 
19:55	72.0	72.0	72.0	84	66.9	0	0	---	0.01	29.799 
20:00	71.8	71.8	71.8	85	67.0	0	0	---	0.00	29.810 
20:05	71.8	71.8	71.8	87	67.7	0	1	112	0.00	29.810 
20:10	71.5	71.5	71.5	87	67.4	1	3	112	0.01	29.810 
20:15	70.9	70.9	70.9	88	67.2	0	1	112	0.01	29.802 
20:20	70.8	70.8	70.8	89	67.4	0	2	180	0.00	29.802 
20:25	70.4	70.4	70.4	90	67.3	0	0	---	0.00	29.802 
20:30	70.3	70.3	70.3	91	67.5	0	1	180	0.00	29.796 
20:35	70.3	70.3	70.3	91	67.5	0	2	180	0.00	29.796 
20:40	70.3	70.3	70.3	92	67.9	0	1	180	0.00	29.796 
20:45	70.3	70.3	70.3	92	67.9	0	1	180	0.00	29.795 
20:50	70.1	70.1	70.1	92	67.7	0	2	180	0.00	29.795 
20:55	69.9	69.9	69.9	92	67.5	0	1	180	0.00	29.795 
21:00	69.8	69.8	69.8	93	67.7	0	1	112	0.00	29.798 
21:05	69.8	69.8	69.8	93	67.7	0	1	112	0.00	29.798 
21:10	69.6	69.6	69.6	93	67.5	0	1	112	0.00	29.798 
21:15	69.6	69.6	69.6	93	67.5	0	0	---	0.00	29.808 
21:20	69.6	69.6	69.6	93	67.5	0	0	---	0.00	29.808 
21:25	69.6	69.6	69.6	93	67.5	0	0	---	0.00	29.808 
21:30	69.6	69.6	69.6	93	67.5	0	0	---	0.00	29.817 
21:35	69.6	69.6	69.6	94	67.8	0	1	112	0.00	29.817 
21:40	69.6	69.6	69.6	94	67.8	0	1	112	0.00	29.817 
21:45	69.6	69.6	69.6	94	67.8	0	0	---	0.00	29.813 
21:50	69.6	69.6	69.6	94	67.8	0	1	112	0.00	29.813 
21:55	69.6	69.6	69.6	94	67.8	0	1	112	0.00	29.813 
22:00	69.6	69.6	69.6	94	67.8	0	0	---	0.00	29.813 
22:05	69.4	69.4	69.4	94	67.6	0	0	---	0.01	29.813 
22:10	69.4	69.4	69.4	94	67.6	0	0	---	0.00	29.813 
22:15	69.4	69.4	69.4	94	67.6	0	0	---	0.00	29.808 
22:20	69.4	69.4	69.4	94	67.6	0	0	---	0.00	29.808 
22:25	69.4	69.4	69.4	94	67.6	0	0	---	0.00	29.808 
22:30	69.4	69.4	69.4	94	67.6	0	0	---	0.00	29.800 
22:35	69.6	69.6	69.6	94	67.8	0	0	---	0.00	29.800 
22:40	69.6	69.6	69.6	94	67.8	0	0	---	0.00	29.800 
22:45	69.6	69.6	69.6	94	67.8	0	0	---	0.00	29.797 
22:50	69.6	69.6	69.6	94	67.8	0	0	---	0.00	29.797 
22:55	69.6	69.6	69.6	94	67.8	0	0	---	0.00	29.797 
23:00	69.6	69.6	69.6	95	68.1	0	1	112	0.00	29.798 
23:05	69.6	69.6	69.6	95	68.1	0	0	---	0.00	29.798 
23:10	69.6	69.6	69.6	95	68.1	0	0	---	0.00	29.798 
23:15	69.6	69.6	69.6	95	68.1	0	0	---	0.00	29.791 
23:20	69.6	69.6	69.6	95	68.1	0	0	---	0.00	29.791 
23:25	69.6	69.6	69.6	95	68.1	0	0	---	0.00	29.791 
23:30	69.6	69.6	69.6	95	68.1	0	0	---	0.00	29.794 
23:35	69.6	69.6	69.6	95	68.1	0	0	---	0.00	29.794 
23:40	69.6	69.6	69.6	95	68.1	0	0	---	0.00	29.794 
23:45	69.8	69.8	69.8	95	68.3	0	0	---	0.00	29.791 
23:50	69.8	69.8	69.8	95	68.3	0	0	---	0.00	29.791 
23:55	69.8	69.8	69.8	95	68.3	0	1	112	0.00	29.791 

CoCoRaHS
IN-AL-39
A2 Web Hosting
Creative Commons License
GoDaddy
search engine by freefind advanced

loaded 2018-11-16 00:18:13 • last modified 2010-11-18 10:43:29
Privacy PolicyDisclaimer
• wx.awcolley.com is powered by PmWiki v.2002016 •
• all content (unless otherwise noted) © 2018 A W Colley